Latest Coastal Weather Observations for Maroochydore

IDQ60701

Issued at 11:02 pm EST Tuesday 21 April 2015 (issued every 10 minutes, with the page automatically refreshed every 10 minutes)

About coastal observations | Map of coastal stations | Coastal observations for QLD | Marine services | Other Formats
Station Details ID: 040861 Name: SUNSHINE COAST AIRPORT Lat: -26.60 Lon: 153.09 Height: 3.3 m
Data from the previous 72 hours. | See also: Recent months at Maroochydore
Date/Time
EST
Temp

°C
Wind Pressure Rain
since 9am
mm
Weather Cloud Vis
km
Sea
Height
m
Swell
Dir
 
Speed
knots
Gust
knots
hPa Trend Height
m
Period
s
Dir
21/10:30pm 11.6 WSW 5 6 1016.4 - 0.0 - - 10 - - - -
21/10:00pm 12.6 WSW 7 7 1016.7 - 0.0 - - 10 - - - -
21/09:30pm 12.9 WSW 7 9 1016.9 - 0.0 - - 10 - - - -
21/09:00pm 12.8 W 7 8 1016.8 - 0.0 - - 10 - - - -
21/08:30pm 12.5 W 6 7 1016.6 - 0.0 - - 10 - - - -
21/07:30pm 13.8 WSW 5 7 1016.3 - 0.0 - - 10 - - - -
21/07:00pm 15.4 WSW 7 9 1016.1 - 0.0 - - 10 - - - -
21/06:30pm 16.7 SW 8 11 1015.9 - 0.0 - - 10 - - - -
21/06:00pm 17.3 SW 10 11 1015.6 - 0.0 - - 10 - - - -
21/05:30pm 18.1 S 9 11 1015.3 - 0.0 - - 10 - - - -
21/05:00pm 20.1 E 4 6 1014.9 - 0.0 - - 10 - - - -
21/04:30pm 21.2 E 5 6 1014.6 - 0.0 - Partly cloudy 10 - - - -
21/04:00pm 21.0 ENE 6 7 1014.4 - 0.0 - Partly cloudy 10 - - - -
21/03:30pm 22.3 ENE 6 8 1014.3 - 0.0 - Partly cloudy 10 - - - -
21/03:00pm 20.8 ENE 6 8 1014.6 - 0.0 - Partly cloudy 10 - - - -
21/02:30pm 21.9 E 5 7 1014.8 - 0.0 - Partly cloudy 10 - - - -
21/02:00pm 22.5 NE 4 8 1014.8 - 0.0 - Partly cloudy 10 - - - -
21/01:30pm 21.5 E 6 8 1015.1 - 0.0 - Partly cloudy 10 - - - -
21/01:00pm 21.3 ENE 3 7 1015.4 - 0.0 - Cloudy 10 - - - -
21/12:30pm 22.2 W 5 8 1015.8 - 0.0 - Cloudy 10 - - - -
21/12:00pm 21.9 WNW 4 6 1016.1 - 0.0 - Mostly cloudy 10 - - - -
21/11:30am 20.3 E 3 6 1016.5 - 0.0 - Cloudy 10 - - - -
21/11:00am 20.2 CALM 0 0 1016.8 - 0.0 - Cloudy 10 - - - -
21/10:30am 19.5 WNW 1 3 1017.1 - 0.0 - Cloudy 10 - - - -
21/10:00am 19.7 SW 2 4 1017.0 - 0.0 - Partly cloudy 10 - - - -
21/09:30am 18.3 SW 2 5 1017.2 - 0.0 - Cloudy 10 - - - -
21/09:00am 17.8 SW 3 5 1017.1 - 2.8 - Mostly cloudy 10 - - - -
21/08:30am 17.0 CALM 0 0 1017.4 - 2.8 - Cloudy 10 - - - -
21/08:00am 16.9 CALM 0 0 1017.2 - 2.8 - Cloudy 10 - - - -
21/07:30am 15.3 CALM 0 0 1016.9 - 2.8 - Cloudy 10 - - - -
21/07:00am 14.7 CALM 0 0 1016.6 - 2.8 - Partly cloudy 10 - - - -
21/06:30am 14.2 WSW 5 6 1016.2 - 2.8 - Partly cloudy 10 - - - -
21/06:00am 14.4 SW 5 6 1016.1 - 2.8 - Partly cloudy 10 - - - -
21/05:30am 14.5 SW 3 5 1016.0 - 2.8 - Partly cloudy 10 - - - -
21/05:00am 14.9 SW 3 4 1015.6 - 2.8 - Partly cloudy 10 - - - -
21/04:30am 15.6 W 3 4 1015.7 - 2.8 - Partly cloudy 10 - - - -
21/04:00am 15.6 WSW 6 7 1015.6 - 2.8 - Cloudy 10 - - - -
21/03:30am 15.6 WSW 7 9 1015.4 - 2.8 - Partly cloudy 10 - - - -
21/03:00am 15.8 WSW 8 10 1015.4 - 2.8 - Mostly clear 10 - - - -
21/02:30am 15.9 SW 6 8 1015.5 - 2.8 - Partly cloudy 10 - - - -
21/02:00am 16.0 WSW 8 11 1015.6 - 2.8 - Partly cloudy 10 - - - -
21/01:00am 16.1 W 9 12 1016.5 - 2.8 - Partly cloudy 10 - - - -
21/12:30am 16.5 WSW 6 10 1016.1 - 2.8 - Partly cloudy 10 - - - -
 
Date/Time
EST
Temp

°C
Wind Pressure Rain
since 9am
mm
Weather Cloud Vis
km
Sea
Height
m
Swell
Dir
 
Speed
knots
Gust
knots
hPa Trend Height
m
Period
s
Dir
20/11:30pm 17.1 WSW 7 9 1017.0 - 2.8 - Partly cloudy 10 - - - -
20/11:00pm 17.2 WSW 11 14 1017.5 - 2.6 - Cloudy 10 - - - -
20/10:30pm 17.7 SW 4 8 1016.8 - 2.6 - Cloudy 10 - - - -
20/10:28pm 17.7 WSW 3 6 1016.6 - 2.6 - Cloudy 10 - - - -
20/10:00pm 18.0 WSW 7 9 1017.6 - 2.6 - Cloudy 10 - - - -
20/09:45pm 18.0 WSW 8 11 1017.1 - 2.6 - Partly cloudy 10 - - - -
20/09:30pm 18.2 SW 7 9 1016.6 - 2.6 - Cloudy 10 - - - -
20/09:00pm 19.0 SE 8 10 1016.1 - 2.6 - Cloudy 10 - - - -
20/08:30pm 18.3 SE 6 8 1016.6 - 2.6 - Cloudy 10 - - - -
20/08:00pm 18.4 SW 3 6 1018.0 - 2.6 - Cloudy 10 - - - -
20/07:30pm 18.5 WSW 6 8 1018.2 - 2.6 - Partly cloudy 10 - - - -
20/07:00pm 19.2 WSW 7 9 1018.3 - 2.4 - Partly cloudy 10 - - - -
20/06:30pm 19.8 SW 6 9 1017.4 - 2.4 - Cloudy 10 - - - -
20/06:00pm 19.9 WSW 1 5 1017.0 - 2.4 - Cloudy 10 - - - -
20/05:30pm 20.0 WSW 5 5 1017.2 - 2.4 - Cloudy 10 - - - -
20/05:00pm 20.2 W 4 5 1017.1 - 2.4 - Partly cloudy 10 - - - -
20/04:30pm 20.4 W 4 5 1016.9 - 2.2 - Partly cloudy 10 - - - -
20/04:00pm 20.5 SSW 5 6 1016.6 - 2.2 - Partly cloudy 10 - - - -
20/03:30pm 20.6 S 5 5 1016.5 - 2.0 - Partly cloudy 10 - - - -
20/03:00pm 20.6 S 4 5 1016.1 - 1.8 - Cloudy 10 - - - -
20/02:30pm 20.5 S 5 7 1016.2 - 1.4 - Cloudy 10 - - - -
20/02:00pm 20.4 S 9 11 1016.2 - 0.6 - Cloudy 10 - - - -
20/01:42pm 21.0 WSW 6 8 1016.3 - 0.0 - Partly cloudy 10 - - - -
20/01:30pm 21.3 WSW 7 10 1016.5 - 0.0 - Partly cloudy 10 - - - -
20/01:06pm 22.0 SW 10 13 1016.8 - 0.0 - Partly cloudy 10 - - - -
20/01:00pm 22.2 SSW 9 12 1016.7 - 0.0 - Partly cloudy 10 - - - -
20/12:30pm 22.9 SW 6 7 1017.0 - 0.0 - Partly cloudy 10 - - - -
20/12:00pm 23.5 SW 6 8 1017.3 - 0.0 - Cloudy 10 - - - -
20/11:30am 24.0 WSW 11 14 1017.6 - 0.0 - Partly cloudy 10 - - - -
20/11:00am 24.1 SSW 8 13 1017.8 - 0.0 - Partly cloudy 10 - - - -
20/10:30am 23.7 S 7 9 1018.1 - 0.0 - Partly cloudy 10 - - - -
20/10:00am 22.8 S 8 11 1018.5 - 0.0 - - 10 - - - -
20/09:30am 22.0 S 9 11 1018.4 - 0.0 - - 10 - - - -
20/09:00am 22.4 SSW 8 11 1018.4 - 0.2 - Mostly clear 10 - - - -
20/08:30am 22.1 S 9 12 1018.1 - 0.2 - - 10 - - - -
20/08:00am 21.7 S 10 12 1018.1 - 0.2 - Partly cloudy 10 - - - -
20/07:30am 21.3 S 9 14 1017.9 - 0.2 - - 10 - - - -
20/07:00am 20.9 S 9 15 1017.8 - 0.2 - Partly cloudy 10 - - - -
20/06:30am 20.7 S 9 12 1017.5 - 0.2 - Partly cloudy 10 - - - -
20/06:00am 20.8 S 9 12 1017.4 - 0.2 - Mostly clear 10 - - - -
20/05:30am 20.6 S 7 10 1017.2 - 0.2 - Partly cloudy 10 - - - -
20/05:00am 19.6 SW 4 5 1017.3 - 0.2 - Partly cloudy 10 - - - -
20/04:30am 18.8 CALM 0 0 1016.9 - 0.2 - Partly cloudy 10 - - - -
20/04:00am 19.1 CALM 0 0 1016.7 - 0.2 - - 10 - - - -
20/03:30am 19.3 CALM 0 0 1016.5 - 0.2 - - 10 - - - -
20/03:00am 19.7 W 4 5 1016.4 - 0.2 - - 10 - - - -
20/02:30am 20.0 WSW 4 6 1016.5 - 0.2 - - 10 - - - -
20/02:00am 20.5 WSW 6 7 1016.9 - 0.2 - Partly cloudy 10 - - - -
20/01:30am 20.7 W 4 5 1016.8 - 0.2 - Partly cloudy 10 - - - -
20/01:00am 21.1 W 6 9 1017.3 - 0.2 - Partly cloudy 10 - - - -
20/12:30am 21.0 W 5 6 1017.3 - 0.2 - Partly cloudy 10 - - - -
20/12:00am 20.8 WNW 2 7 1017.5 - 0.2 - - 10 - - - -
 
Date/Time
EST
Temp

°C
Wind Pressure Rain
since 9am
mm
Weather Cloud Vis
km
Sea
Height
m
Swell
Dir
 
Speed
knots
Gust
knots
hPa Trend Height
m
Period
s
Dir
19/11:30pm 21.4 CALM 0 0 1017.7 - 0.2 - Partly cloudy 10 - - - -
19/11:00pm 21.7 CALM 0 0 1018.0 - 0.2 - Cloudy 10 - - - -
19/10:30pm 21.7 CALM 0 0 1018.5 - 0.2 - Partly cloudy 10 - - - -
19/10:00pm 21.5 CALM 0 0 1018.5 - 0.2 - Partly cloudy 10 - - - -
19/09:30pm 21.4 CALM 0 0 1018.5 - 0.2 - Partly cloudy 10 - - - -
19/09:00pm 21.4 CALM 0 0 1018.4 - 0.2 - Cloudy 10 - - - -
19/08:30pm 21.0 CALM 0 0 1018.5 - 0.2 - Partly cloudy 10 - - - -
19/08:00pm 21.1 CALM 0 0 1018.5 - 0.2 - Partly cloudy 10 - - - -
19/07:30pm 21.6 CALM 0 0 1018.1 - 0.2 - Partly cloudy 10 - - - -
19/07:00pm 21.7 CALM 0 0 1017.8 - 0.2 - Partly cloudy 10 - - - -
19/06:30pm 22.2 W 3 3 1017.5 - 0.2 - - 10 - - - -
19/06:00pm 22.6 NNW 4 5 1017.2 - 0.2 - - 10 - - - -
19/05:30pm 23.6 NNE 8 10 1016.5 - 0.2 - - 10 - - - -
19/05:00pm 23.8 N 8 11 1016.7 - 0.2 - - 10 - - - -
19/04:30pm 24.4 N 9 12 1016.6 - 0.2 - - 10 - - - -
19/04:00pm 25.4 NNE 11 13 1016.4 - 0.2 - - 10 - - - -
19/03:30pm 24.7 NE 10 12 1016.2 - 0.2 - - 10 - - - -
19/03:00pm 25.6 NE 10 11 1016.2 - 0.2 - - 10 - - - -
19/02:30pm 27.0 ENE 9 11 1016.5 - 0.2 - - 10 - - - -
19/02:00pm 27.2 NE 8 10 1016.6 - 0.2 - - 10 - - - -
19/01:30pm 27.4 NE 9 11 1017.1 - 0.2 - - 10 - - - -
19/01:00pm 26.5 NE 7 9 1017.4 - 0.2 - - 10 - - - -
19/12:30pm 25.9 NE 9 11 1017.5 - 0.2 - Partly cloudy 10 - - - -
19/12:00pm 27.6 NE 8 11 1018.1 - 0.2 - Mostly clear 10 - - - -
19/11:30am 26.7 ENE 8 10 1018.7 - 0.2 - Partly cloudy 10 - - - -
19/11:00am 27.1 ENE 7 9 1018.9 - 0.2 - Partly cloudy 10 - - - -
19/10:30am 26.7 NW 6 8 1019.2 - 0.0 - Partly cloudy 10 - - - -
19/10:00am 24.8 NW 4 6 1019.5 - 0.0 - - 10 - - - -
19/09:30am 24.1 W 4 5 1019.6 - 0.0 - - 10 - - - -
19/09:00am 23.3 W 4 5 1019.5 - 1.6 - - 10 - - - -
19/08:30am 23.1 WSW 4 5 1019.5 - 1.6 - - 10 - - - -
19/08:00am 22.6 CALM 0 0 1019.1 - 1.6 - - 10 - - - -
19/07:30am 21.1 CALM 0 0 1019.2 - 1.6 - - 10 - - - -
19/07:00am 19.9 WSW 2 6 1018.8 - 1.6 - Partly cloudy 10 - - - -
19/06:30am 19.2 WSW 5 6 1018.6 - 1.6 - Partly cloudy 10 - - - -
19/06:00am 19.1 W 5 7 1018.4 - 1.6 - Mostly cloudy 10 - - - -
19/05:30am 19.3 WNW 3 4 1018.3 - 1.6 - Cloudy 10 - - - -
19/05:00am 19.5 NNW 4 5 1018.3 - 1.6 - Partly cloudy 10 - - - -
19/04:30am 19.1 WNW 5 6 1018.2 - 1.6 - - 10 - - - -
19/04:00am 19.1 W 4 5 1018.1 - 1.6 - - 10 - - - -
19/03:30am 19.7 W 3 4 1018.1 - 1.6 - Cloudy 10 - - - -
19/03:00am 19.9 W 5 6 1018.6 - 1.6 - Mostly cloudy 10 - - - -
19/02:30am 19.9 WNW 4 5 1018.8 - 1.6 - Partly cloudy 10 - - - -
19/02:00am 20.3 WNW 3 5 1019.0 - 1.6 - Partly cloudy 10 - - - -
19/01:30am 20.5 WSW 4 5 1019.3 - 1.6 - Partly cloudy 10 - - - -
19/01:00am 20.5 WSW 3 5 1019.6 - 1.6 - Partly cloudy 10 - - - -
19/12:30am 20.6 WNW 5 9 1020.0 - 1.6 - Partly cloudy 10 - - - -
19/12:00am 21.3 CALM 0 1 1020.0 - 1.6 - Mostly cloudy 10 - - - -
 
Date/Time
EST
Temp

°C
Wind Pressure Rain
since 9am
mm
Weather Cloud Vis
km
Sea
Height
m
Swell
Dir
 
Speed
knots
Gust
knots
hPa Trend Height
m
Period
s
Dir
18/11:44pm 21.2 E 3 5 1020.2 - 1.6 - Partly cloudy 10 - - - -
18/11:30pm 21.1 ENE 7 10 1020.3 - 1.6 - Partly cloudy 4 - - - -
18/11:24pm 21.4 N 13 17 1020.5 - 1.0 - Partly cloudy 5 - - - -

Other Formats:

Comma delimited format used in spreadsheet applications
http://www.bom.gov.au/fwo/IDQ60701/IDQ60701.94569.axf

JavaScript Object Notation format (JSON) in row-major order
http://www.bom.gov.au/fwo/IDQ60701/IDQ60701.94569.json